sensor_id;sensor_type;location;lat;lon;timestamp;P1;durP1;ratioP1;P2;durP2;ratioP2
20454;SDS011;10386;54.314;10.022;2023-02-28T00:01:30;9.53;;;4.03;;
20454;SDS011;10386;54.314;10.022;2023-02-28T00:03:58;9.43;;;3.90;;
20454;SDS011;10386;54.314;10.022;2023-02-28T00:06:25;6.80;;;3.77;;
20454;SDS011;10386;54.314;10.022;2023-02-28T00:08:52;7.40;;;4.43;;
20454;SDS011;10386;54.314;10.022;2023-02-28T00:11:19;6.97;;;3.83;;
20454;SDS011;10386;54.314;10.022;2023-02-28T00:13:46;7.87;;;3.93;;
20454;SDS011;10386;54.314;10.022;2023-02-28T00:16:14;6.50;;;4.10;;
20454;SDS011;10386;54.314;10.022;2023-02-28T00:18:47;8.13;;;3.83;;
20454;SDS011;10386;54.314;10.022;2023-02-28T00:21:14;9.27;;;4.03;;
20454;SDS011;10386;54.314;10.022;2023-02-28T00:23:42;6.20;;;3.93;;
20454;SDS011;10386;54.314;10.022;2023-02-28T00:26:09;11.23;;;3.97;;
20454;SDS011;10386;54.314;10.022;2023-02-28T00:28:37;9.20;;;4.07;;
20454;SDS011;10386;54.314;10.022;2023-02-28T00:31:03;8.23;;;4.33;;
20454;SDS011;10386;54.314;10.022;2023-02-28T00:33:31;7.57;;;4.70;;
20454;SDS011;10386;54.314;10.022;2023-02-28T00:36:02;6.60;;;3.90;;
20454;SDS011;10386;54.314;10.022;2023-02-28T00:38:33;6.67;;;4.20;;
20454;SDS011;10386;54.314;10.022;2023-02-28T00:41:00;8.77;;;4.37;;
20454;SDS011;10386;54.314;10.022;2023-02-28T00:43:31;7.73;;;3.93;;
20454;SDS011;10386;54.314;10.022;2023-02-28T00:46:00;9.73;;;4.60;;
20454;SDS011;10386;54.314;10.022;2023-02-28T00:48:28;8.70;;;4.30;;
20454;SDS011;10386;54.314;10.022;2023-02-28T00:50:55;7.87;;;3.87;;
20454;SDS011;10386;54.314;10.022;2023-02-28T00:53:21;8.73;;;4.23;;
20454;SDS011;10386;54.314;10.022;2023-02-28T00:55:48;12.00;;;4.07;;
20454;SDS011;10386;54.314;10.022;2023-02-28T00:58:20;7.83;;;4.20;;
20454;SDS011;10386;54.314;10.022;2023-02-28T01:00:47;9.47;;;3.83;;
20454;SDS011;10386;54.314;10.022;2023-02-28T01:03:16;8.97;;;3.93;;
20454;SDS011;10386;54.314;10.022;2023-02-28T01:05:43;8.67;;;4.13;;
20454;SDS011;10386;54.314;10.022;2023-02-28T01:08:10;8.97;;;4.73;;
20454;SDS011;10386;54.314;10.022;2023-02-28T01:10:37;9.33;;;4.03;;
20454;SDS011;10386;54.314;10.022;2023-02-28T01:13:04;8.27;;;4.30;;
20454;SDS011;10386;54.314;10.022;2023-02-28T01:15:33;10.87;;;4.10;;
20454;SDS011;10386;54.314;10.022;2023-02-28T01:18:00;11.10;;;4.10;;
20454;SDS011;10386;54.314;10.022;2023-02-28T01:20:27;9.13;;;4.57;;
20454;SDS011;10386;54.314;10.022;2023-02-28T01:22:54;8.07;;;4.50;;
20454;SDS011;10386;54.314;10.022;2023-02-28T01:25:20;10.13;;;4.30;;
20454;SDS011;10386;54.314;10.022;2023-02-28T01:27:47;11.93;;;4.27;;
20454;SDS011;10386;54.314;10.022;2023-02-28T01:30:14;5.63;;;4.10;;
20454;SDS011;10386;54.314;10.022;2023-02-28T01:32:41;7.17;;;4.43;;
20454;SDS011;10386;54.314;10.022;2023-02-28T01:35:08;7.87;;;4.40;;
20454;SDS011;10386;54.314;10.022;2023-02-28T01:37:34;10.70;;;4.50;;
20454;SDS011;10386;54.314;10.022;2023-02-28T01:40:01;8.10;;;4.60;;
20454;SDS011;10386;54.314;10.022;2023-02-28T01:42:28;10.53;;;4.27;;
20454;SDS011;10386;54.314;10.022;2023-02-28T01:47:29;9.00;;;4.40;;
20454;SDS011;10386;54.314;10.022;2023-02-28T01:50:04;11.50;;;4.73;;
20454;SDS011;10386;54.314;10.022;2023-02-28T01:52:36;7.53;;;4.17;;
20454;SDS011;10386;54.314;10.022;2023-02-28T01:55:04;6.17;;;3.93;;
20454;SDS011;10386;54.314;10.022;2023-02-28T01:57:40;6.10;;;3.80;;
20454;SDS011;10386;54.314;10.022;2023-02-28T02:00:13;9.10;;;3.80;;
20454;SDS011;10386;54.314;10.022;2023-02-28T02:02:42;6.87;;;3.87;;
20454;SDS011;10386;54.314;10.022;2023-02-28T02:05:15;7.30;;;4.07;;
20454;SDS011;10386;54.314;10.022;2023-02-28T02:07:45;9.17;;;4.17;;
20454;SDS011;10386;54.314;10.022;2023-02-28T02:24:33;8.33;;;4.17;;
20454;SDS011;10386;54.314;10.022;2023-02-28T02:27:33;7.70;;;4.30;;
20454;SDS011;10386;54.314;10.022;2023-02-28T02:35:35;6.13;;;4.33;;
20454;SDS011;10386;54.314;10.022;2023-02-28T02:38:19;12.23;;;4.43;;
20454;SDS011;10386;54.314;10.022;2023-02-28T02:46:34;8.17;;;4.13;;
20454;SDS011;10386;54.314;10.022;2023-02-28T02:49:02;9.83;;;4.00;;
20454;SDS011;10386;54.314;10.022;2023-02-28T02:51:32;7.77;;;4.30;;
20454;SDS011;10386;54.314;10.022;2023-02-28T02:54:02;9.17;;;4.40;;
20454;SDS011;10386;54.314;10.022;2023-02-28T02:56:31;6.80;;;4.30;;
20454;SDS011;10386;54.314;10.022;2023-02-28T02:59:02;8.23;;;4.50;;
20454;SDS011;10386;54.314;10.022;2023-02-28T03:01:31;7.77;;;4.63;;
20454;SDS011;10386;54.314;10.022;2023-02-28T03:04:03;7.67;;;4.00;;
20454;SDS011;10386;54.314;10.022;2023-02-28T03:06:33;7.83;;;4.40;;
20454;SDS011;10386;54.314;10.022;2023-02-28T03:09:02;13.13;;;4.70;;
20454;SDS011;10386;54.314;10.022;2023-02-28T03:11:29;7.50;;;4.20;;
20454;SDS011;10386;54.314;10.022;2023-02-28T03:19:47;5.67;;;3.80;;
20454;SDS011;10386;54.314;10.022;2023-02-28T03:31:50;6.63;;;3.70;;
20454;SDS011;10386;54.314;10.022;2023-02-28T03:34:26;8.57;;;3.90;;
20454;SDS011;10386;54.314;10.022;2023-02-28T03:36:59;9.87;;;3.97;;
20454;SDS011;10386;54.314;10.022;2023-02-28T03:39:35;8.93;;;4.20;;
20454;SDS011;10386;54.314;10.022;2023-02-28T03:42:09;8.43;;;3.70;;
20454;SDS011;10386;54.314;10.022;2023-02-28T03:44:41;10.10;;;4.03;;
20454;SDS011;10386;54.314;10.022;2023-02-28T03:47:16;7.13;;;4.10;;
20454;SDS011;10386;54.314;10.022;2023-02-28T03:49:59;5.27;;;3.80;;
20454;SDS011;10386;54.314;10.022;2023-02-28T03:52:32;5.97;;;3.50;;
20454;SDS011;10386;54.314;10.022;2023-02-28T03:55:03;6.43;;;3.60;;
20454;SDS011;10386;54.314;10.022;2023-02-28T03:57:56;6.10;;;3.60;;
20454;SDS011;10386;54.314;10.022;2023-02-28T04:00:45;5.93;;;3.43;;
20454;SDS011;10386;54.314;10.022;2023-02-28T04:03:19;8.40;;;3.67;;
20454;SDS011;10386;54.314;10.022;2023-02-28T04:05:47;7.53;;;3.77;;
20454;SDS011;10386;54.314;10.022;2023-02-28T04:08:18;8.77;;;4.00;;
20454;SDS011;10386;54.314;10.022;2023-02-28T04:10:45;7.17;;;4.30;;
20454;SDS011;10386;54.314;10.022;2023-02-28T04:13:19;6.47;;;4.03;;
20454;SDS011;10386;54.314;10.022;2023-02-28T04:15:46;6.77;;;4.13;;
20454;SDS011;10386;54.314;10.022;2023-02-28T04:18:13;10.27;;;4.00;;
20454;SDS011;10386;54.314;10.022;2023-02-28T04:20:39;6.57;;;4.20;;
20454;SDS011;10386;54.314;10.022;2023-02-28T04:23:06;8.03;;;4.27;;
20454;SDS011;10386;54.314;10.022;2023-02-28T04:25:33;10.60;;;4.60;;
20454;SDS011;10386;54.314;10.022;2023-02-28T04:27:59;8.03;;;4.20;;
20454;SDS011;10386;54.314;10.022;2023-02-28T04:30:26;11.40;;;4.73;;
20454;SDS011;10386;54.314;10.022;2023-02-28T04:32:53;9.33;;;4.60;;
20454;SDS011;10386;54.314;10.022;2023-02-28T04:35:20;7.03;;;4.47;;
20454;SDS011;10386;54.314;10.022;2023-02-28T04:37:46;12.90;;;4.57;;
20454;SDS011;10386;54.314;10.022;2023-02-28T04:40:13;10.30;;;4.23;;
20454;SDS011;10386;54.314;10.022;2023-02-28T04:42:40;7.57;;;4.60;;
20454;SDS011;10386;54.314;10.022;2023-02-28T04:45:06;10.13;;;4.20;;
20454;SDS011;10386;54.314;10.022;2023-02-28T04:47:36;11.70;;;4.60;;
20454;SDS011;10386;54.314;10.022;2023-02-28T04:50:03;7.63;;;4.40;;
20454;SDS011;10386;54.314;10.022;2023-02-28T04:52:30;7.43;;;4.50;;
20454;SDS011;10386;54.314;10.022;2023-02-28T04:54:57;11.67;;;4.40;;
20454;SDS011;10386;54.314;10.022;2023-02-28T04:57:23;10.23;;;5.00;;
20454;SDS011;10386;54.314;10.022;2023-02-28T04:59:50;8.37;;;4.17;;
20454;SDS011;10386;54.314;10.022;2023-02-28T05:02:17;12.20;;;4.77;;
20454;SDS011;10386;54.314;10.022;2023-02-28T05:04:43;9.80;;;5.03;;
20454;SDS011;10386;54.314;10.022;2023-02-28T05:07:10;8.63;;;4.30;;
20454;SDS011;10386;54.314;10.022;2023-02-28T05:09:37;7.57;;;4.30;;
20454;SDS011;10386;54.314;10.022;2023-02-28T05:12:04;7.53;;;4.03;;
20454;SDS011;10386;54.314;10.022;2023-02-28T05:14:30;8.27;;;4.43;;
20454;SDS011;10386;54.314;10.022;2023-02-28T05:16:57;7.90;;;4.87;;
20454;SDS011;10386;54.314;10.022;2023-02-28T05:19:24;10.70;;;4.70;;
20454;SDS011;10386;54.314;10.022;2023-02-28T05:21:54;8.23;;;4.33;;
20454;SDS011;10386;54.314;10.022;2023-02-28T05:24:21;7.53;;;4.60;;
20454;SDS011;10386;54.314;10.022;2023-02-28T05:26:52;6.83;;;4.33;;
20454;SDS011;10386;54.314;10.022;2023-02-28T05:29:20;8.53;;;4.77;;
20454;SDS011;10386;54.314;10.022;2023-02-28T05:31:47;10.33;;;4.33;;
20454;SDS011;10386;54.314;10.022;2023-02-28T05:34:14;9.70;;;4.67;;
20454;SDS011;10386;54.314;10.022;2023-02-28T05:36:42;9.30;;;4.43;;
20454;SDS011;10386;54.314;10.022;2023-02-28T05:39:09;11.60;;;4.50;;
20454;SDS011;10386;54.314;10.022;2023-02-28T05:41:40;7.67;;;4.53;;
20454;SDS011;10386;54.314;10.022;2023-02-28T05:44:07;9.17;;;4.80;;
20454;SDS011;10386;54.314;10.022;2023-02-28T05:46:34;12.77;;;5.77;;
20454;SDS011;10386;54.314;10.022;2023-02-28T05:49:01;7.63;;;4.83;;
20454;SDS011;10386;54.314;10.022;2023-02-28T05:51:28;11.70;;;5.10;;
20454;SDS011;10386;54.314;10.022;2023-02-28T05:53:58;7.73;;;5.10;;
20454;SDS011;10386;54.314;10.022;2023-02-28T05:56:26;8.13;;;4.93;;
20454;SDS011;10386;54.314;10.022;2023-02-28T05:58:53;8.83;;;5.13;;
20454;SDS011;10386;54.314;10.022;2023-02-28T06:01:21;10.93;;;5.03;;
20454;SDS011;10386;54.314;10.022;2023-02-28T06:03:51;8.90;;;5.67;;
20454;SDS011;10386;54.314;10.022;2023-02-28T06:06:18;14.13;;;5.03;;
20454;SDS011;10386;54.314;10.022;2023-02-28T06:08:45;11.53;;;5.60;;
20454;SDS011;10386;54.314;10.022;2023-02-28T06:11:12;9.60;;;5.80;;
20454;SDS011;10386;54.314;10.022;2023-02-28T06:13:38;8.77;;;5.90;;
20454;SDS011;10386;54.314;10.022;2023-02-28T06:16:05;10.50;;;5.23;;
20454;SDS011;10386;54.314;10.022;2023-02-28T06:18:32;8.63;;;5.47;;
20454;SDS011;10386;54.314;10.022;2023-02-28T06:20:59;9.37;;;5.63;;
20454;SDS011;10386;54.314;10.022;2023-02-28T06:23:25;10.67;;;5.87;;
20454;SDS011;10386;54.314;10.022;2023-02-28T06:25:52;9.80;;;6.43;;
20454;SDS011;10386;54.314;10.022;2023-02-28T06:28:19;9.30;;;5.90;;
20454;SDS011;10386;54.314;10.022;2023-02-28T06:30:47;15.07;;;6.33;;
20454;SDS011;10386;54.314;10.022;2023-02-28T06:33:14;13.13;;;6.83;;
20454;SDS011;10386;54.314;10.022;2023-02-28T06:35:43;9.60;;;5.50;;
20454;SDS011;10386;54.314;10.022;2023-02-28T06:38:11;12.93;;;6.30;;
20454;SDS011;10386;54.314;10.022;2023-02-28T06:40:38;13.57;;;6.27;;
20454;SDS011;10386;54.314;10.022;2023-02-28T06:43:04;21.47;;;9.07;;
20454;SDS011;10386;54.314;10.022;2023-02-28T06:45:31;26.33;;;11.00;;
20454;SDS011;10386;54.314;10.022;2023-02-28T06:47:58;29.00;;;12.23;;
20454;SDS011;10386;54.314;10.022;2023-02-28T06:50:26;21.60;;;9.90;;
20454;SDS011;10386;54.314;10.022;2023-02-28T06:52:54;24.27;;;10.80;;
20454;SDS011;10386;54.314;10.022;2023-02-28T06:55:22;18.60;;;8.77;;
20454;SDS011;10386;54.314;10.022;2023-02-28T06:57:48;20.80;;;8.43;;
20454;SDS011;10386;54.314;10.022;2023-02-28T07:00:16;18.43;;;7.87;;
20454;SDS011;10386;54.314;10.022;2023-02-28T07:02:43;14.47;;;7.50;;
20454;SDS011;10386;54.314;10.022;2023-02-28T07:05:10;14.47;;;7.00;;
20454;SDS011;10386;54.314;10.022;2023-02-28T07:07:37;12.87;;;6.70;;
20454;SDS011;10386;54.314;10.022;2023-02-28T07:10:07;15.03;;;7.07;;
20454;SDS011;10386;54.314;10.022;2023-02-28T07:12:34;11.93;;;6.67;;
20454;SDS011;10386;54.314;10.022;2023-02-28T07:15:03;13.43;;;7.47;;
20454;SDS011;10386;54.314;10.022;2023-02-28T07:17:31;12.73;;;6.70;;
20454;SDS011;10386;54.314;10.022;2023-02-28T07:19:58;13.17;;;6.60;;
20454;SDS011;10386;54.314;10.022;2023-02-28T07:22:25;11.13;;;6.60;;
20454;SDS011;10386;54.314;10.022;2023-02-28T07:24:51;11.43;;;6.37;;
20454;SDS011;10386;54.314;10.022;2023-02-28T07:27:18;14.47;;;7.50;;
20454;SDS011;10386;54.314;10.022;2023-02-28T07:29:50;12.40;;;6.97;;
20454;SDS011;10386;54.314;10.022;2023-02-28T07:32:16;14.13;;;7.27;;
20454;SDS011;10386;54.314;10.022;2023-02-28T07:34:44;14.83;;;7.07;;
20454;SDS011;10386;54.314;10.022;2023-02-28T07:37:11;13.37;;;7.70;;
20454;SDS011;10386;54.314;10.022;2023-02-28T07:39:37;16.13;;;7.83;;
20454;SDS011;10386;54.314;10.022;2023-02-28T07:42:05;16.80;;;8.13;;
20454;SDS011;10386;54.314;10.022;2023-02-28T07:44:32;14.80;;;7.37;;
20454;SDS011;10386;54.314;10.022;2023-02-28T07:46:59;15.30;;;8.63;;
20454;SDS011;10386;54.314;10.022;2023-02-28T07:49:26;15.83;;;8.13;;
20454;SDS011;10386;54.314;10.022;2023-02-28T07:51:53;14.30;;;7.83;;
20454;SDS011;10386;54.314;10.022;2023-02-28T07:54:20;12.23;;;7.70;;
20454;SDS011;10386;54.314;10.022;2023-02-28T07:56:46;16.23;;;8.27;;
20454;SDS011;10386;54.314;10.022;2023-02-28T07:59:13;17.03;;;7.97;;
20454;SDS011;10386;54.314;10.022;2023-02-28T08:01:40;12.43;;;7.27;;
20454;SDS011;10386;54.314;10.022;2023-02-28T08:04:06;12.53;;;7.33;;
20454;SDS011;10386;54.314;10.022;2023-02-28T08:06:33;12.77;;;7.97;;
20454;SDS011;10386;54.314;10.022;2023-02-28T08:09:00;12.97;;;6.80;;
20454;SDS011;10386;54.314;10.022;2023-02-28T08:11:26;13.47;;;6.77;;
20454;SDS011;10386;54.314;10.022;2023-02-28T08:13:54;10.77;;;6.63;;
20454;SDS011;10386;54.314;10.022;2023-02-28T08:16:21;11.07;;;6.67;;
20454;SDS011;10386;54.314;10.022;2023-02-28T08:18:49;10.03;;;6.00;;
20454;SDS011;10386;54.314;10.022;2023-02-28T08:21:17;13.50;;;6.17;;
20454;SDS011;10386;54.314;10.022;2023-02-28T08:23:48;13.33;;;6.30;;
20454;SDS011;10386;54.314;10.022;2023-02-28T08:26:17;12.07;;;6.27;;
20454;SDS011;10386;54.314;10.022;2023-02-28T08:28:44;9.40;;;6.43;;
20454;SDS011;10386;54.314;10.022;2023-02-28T08:31:12;13.57;;;6.40;;
20454;SDS011;10386;54.314;10.022;2023-02-28T08:33:41;12.93;;;6.60;;
20454;SDS011;10386;54.314;10.022;2023-02-28T08:36:08;11.00;;;5.80;;
20454;SDS011;10386;54.314;10.022;2023-02-28T08:38:36;12.03;;;6.30;;
20454;SDS011;10386;54.314;10.022;2023-02-28T08:41:04;11.23;;;6.30;;
20454;SDS011;10386;54.314;10.022;2023-02-28T08:43:33;11.27;;;6.10;;
20454;SDS011;10386;54.314;10.022;2023-02-28T08:46:01;15.73;;;6.17;;
20454;SDS011;10386;54.314;10.022;2023-02-28T08:48:29;11.77;;;6.27;;
20454;SDS011;10386;54.314;10.022;2023-02-28T08:51:02;10.77;;;6.07;;
20454;SDS011;10386;54.314;10.022;2023-02-28T08:53:35;13.23;;;5.77;;
20454;SDS011;10386;54.314;10.022;2023-02-28T08:56:08;11.63;;;5.87;;
20454;SDS011;10386;54.314;10.022;2023-02-28T08:58:41;9.87;;;5.67;;
20454;SDS011;10386;54.314;10.022;2023-02-28T09:01:09;8.67;;;5.53;;
20454;SDS011;10386;54.314;10.022;2023-02-28T09:03:38;16.37;;;6.17;;
20454;SDS011;10386;54.314;10.022;2023-02-28T09:06:05;10.27;;;5.33;;
20454;SDS011;10386;54.314;10.022;2023-02-28T09:08:33;11.17;;;5.40;;
20454;SDS011;10386;54.314;10.022;2023-02-28T09:11:00;9.23;;;5.07;;
20454;SDS011;10386;54.314;10.022;2023-02-28T09:13:29;8.17;;;5.00;;
20454;SDS011;10386;54.314;10.022;2023-02-28T09:16:00;9.40;;;5.07;;
20454;SDS011;10386;54.314;10.022;2023-02-28T09:18:29;13.93;;;5.33;;
20454;SDS011;10386;54.314;10.022;2023-02-28T09:20:56;11.17;;;4.93;;
20454;SDS011;10386;54.314;10.022;2023-02-28T09:23:24;9.43;;;4.57;;
20454;SDS011;10386;54.314;10.022;2023-02-28T09:25:52;7.53;;;4.57;;
20454;SDS011;10386;54.314;10.022;2023-02-28T09:28:20;14.73;;;5.03;;
20454;SDS011;10386;54.314;10.022;2023-02-28T09:30:49;11.67;;;4.93;;
20454;SDS011;10386;54.314;10.022;2023-02-28T09:33:17;9.50;;;4.40;;
20454;SDS011;10386;54.314;10.022;2023-02-28T09:35:50;11.27;;;4.73;;
20454;SDS011;10386;54.314;10.022;2023-02-28T09:38:23;8.23;;;4.23;;
20454;SDS011;10386;54.314;10.022;2023-02-28T09:40:51;8.63;;;4.47;;
20454;SDS011;10386;54.314;10.022;2023-02-28T09:43:22;7.67;;;3.80;;
20454;SDS011;10386;54.314;10.022;2023-02-28T09:45:55;8.03;;;3.50;;
20454;SDS011;10386;54.314;10.022;2023-02-28T09:48:35;5.37;;;3.60;;
20454;SDS011;10386;54.314;10.022;2023-02-28T09:51:12;7.87;;;3.70;;
20454;SDS011;10386;54.314;10.022;2023-02-28T09:53:50;11.73;;;4.60;;
20454;SDS011;10386;54.314;10.022;2023-02-28T09:56:41;6.47;;;4.27;;
20454;SDS011;10386;54.314;10.022;2023-02-28T09:59:29;7.53;;;3.73;;
20454;SDS011;10386;54.314;10.022;2023-02-28T10:05:00;6.20;;;3.87;;
20454;SDS011;10386;54.314;10.022;2023-02-28T10:10:41;5.40;;;3.17;;
20454;SDS011;10386;54.314;10.022;2023-02-28T10:19:16;2.83;;;2.13;;
20454;SDS011;10386;54.314;10.022;2023-02-28T10:24:32;4.33;;;2.63;;
20454;SDS011;10386;54.314;10.022;2023-02-28T10:27:16;5.30;;;2.90;;
20454;SDS011;10386;54.314;10.022;2023-02-28T10:29:49;5.13;;;3.10;;
20454;SDS011;10386;54.314;10.022;2023-02-28T10:32:21;3.53;;;2.57;;
20454;SDS011;10386;54.314;10.022;2023-02-28T10:37:46;3.47;;;2.07;;
20454;SDS011;10386;54.314;10.022;2023-02-28T10:45:30;2.83;;;2.00;;
20454;SDS011;10386;54.314;10.022;2023-02-28T10:51:25;4.10;;;2.27;;
20454;SDS011;10386;54.314;10.022;2023-02-28T10:54:00;4.70;;;2.70;;
20454;SDS011;10386;54.314;10.022;2023-02-28T10:56:28;4.00;;;1.90;;
20454;SDS011;10386;54.314;10.022;2023-02-28T11:01:47;3.40;;;2.20;;
20454;SDS011;10386;54.314;10.022;2023-02-28T11:06:59;4.77;;;2.50;;
20454;SDS011;10386;54.314;10.022;2023-02-28T11:09:33;4.00;;;2.33;;
20454;SDS011;10386;54.314;10.022;2023-02-28T11:12:02;3.77;;;2.30;;
20454;SDS011;10386;54.314;10.022;2023-02-28T11:14:37;4.23;;;2.47;;
20454;SDS011;10386;54.314;10.022;2023-02-28T11:17:15;4.77;;;2.77;;
20454;SDS011;10386;54.314;10.022;2023-02-28T11:19:54;6.27;;;2.30;;
20454;SDS011;10386;54.314;10.022;2023-02-28T11:22:25;3.93;;;2.57;;
20454;SDS011;10386;54.314;10.022;2023-02-28T11:24:56;3.43;;;2.47;;
20454;SDS011;10386;54.314;10.022;2023-02-28T11:27:39;2.73;;;2.30;;
20454;SDS011;10386;54.314;10.022;2023-02-28T11:30:24;6.37;;;2.60;;
20454;SDS011;10386;54.314;10.022;2023-02-28T11:32:57;6.27;;;2.40;;
20454;SDS011;10386;54.314;10.022;2023-02-28T11:35:26;3.67;;;2.30;;
20454;SDS011;10386;54.314;10.022;2023-02-28T11:37:58;3.37;;;2.30;;
20454;SDS011;10386;54.314;10.022;2023-02-28T11:40:30;3.93;;;2.67;;
20454;SDS011;10386;54.314;10.022;2023-02-28T11:48:58;3.87;;;2.33;;
20454;SDS011;10386;54.314;10.022;2023-02-28T11:51:48;2.70;;;2.20;;
20454;SDS011;10386;54.314;10.022;2023-02-28T12:00:00;8.70;;;3.93;;
20454;SDS011;10386;54.314;10.022;2023-02-28T12:02:58;5.17;;;2.70;;
20454;SDS011;10386;54.314;10.022;2023-02-28T12:25:13;2.93;;;2.40;;
20454;SDS011;10386;54.314;10.022;2023-02-28T12:27:50;5.90;;;2.30;;
20454;SDS011;10386;54.314;10.022;2023-02-28T12:30:21;2.83;;;2.20;;
20454;SDS011;10386;54.314;10.022;2023-02-28T12:33:08;2.70;;;2.40;;
20454;SDS011;10386;54.314;10.022;2023-02-28T12:35:41;4.13;;;2.60;;
20454;SDS011;10386;54.314;10.022;2023-02-28T12:38:24;8.50;;;3.10;;
20454;SDS011;10386;54.314;10.022;2023-02-28T12:41:02;5.43;;;2.23;;
20454;SDS011;10386;54.314;10.022;2023-02-28T12:43:33;4.13;;;2.60;;
20454;SDS011;10386;54.314;10.022;2023-02-28T12:46:08;4.17;;;2.53;;
20454;SDS011;10386;54.314;10.022;2023-02-28T12:48:46;6.80;;;2.73;;
20454;SDS011;10386;54.314;10.022;2023-02-28T12:51:16;2.87;;;2.60;;
20454;SDS011;10386;54.314;10.022;2023-02-28T12:59:57;5.93;;;2.60;;
20454;SDS011;10386;54.314;10.022;2023-02-28T13:10:39;3.93;;;2.10;;
20454;SDS011;10386;54.314;10.022;2023-02-28T13:13:16;3.27;;;2.27;;
20454;SDS011;10386;54.314;10.022;2023-02-28T13:16:08;2.43;;;2.10;;
20454;SDS011;10386;54.314;10.022;2023-02-28T13:18:37;3.43;;;1.70;;
20454;SDS011;10386;54.314;10.022;2023-02-28T13:21:21;4.60;;;2.10;;
20454;SDS011;10386;54.314;10.022;2023-02-28T13:28:58;3.50;;;2.00;;
20454;SDS011;10386;54.314;10.022;2023-02-28T13:32:33;2.33;;;1.80;;
20454;SDS011;10386;54.314;10.022;2023-02-28T13:34:35;2.67;;;2.10;;
20454;SDS011;10386;54.314;10.022;2023-02-28T13:47:43;3.27;;;2.17;;
20454;SDS011;10386;54.314;10.022;2023-02-28T14:08:56;3.80;;;2.40;;
20454;SDS011;10386;54.314;10.022;2023-02-28T14:11:32;3.70;;;2.30;;
20454;SDS011;10386;54.314;10.022;2023-02-28T14:14:01;5.20;;;3.27;;
20454;SDS011;10386;54.314;10.022;2023-02-28T14:16:47;4.80;;;2.60;;
20454;SDS011;10386;54.314;10.022;2023-02-28T14:25:20;5.27;;;2.60;;
20454;SDS011;10386;54.314;10.022;2023-02-28T14:31:00;4.47;;;2.10;;
20454;SDS011;10386;54.314;10.022;2023-02-28T14:33:38;3.83;;;2.30;;
20454;SDS011;10386;54.314;10.022;2023-02-28T14:36:37;3.97;;;2.37;;
20454;SDS011;10386;54.314;10.022;2023-02-28T14:39:24;3.00;;;2.60;;
20454;SDS011;10386;54.314;10.022;2023-02-28T14:41:57;2.60;;;2.07;;
20454;SDS011;10386;54.314;10.022;2023-02-28T14:44:31;3.13;;;2.20;;
20454;SDS011;10386;54.314;10.022;2023-02-28T14:47:02;6.20;;;2.20;;
20454;SDS011;10386;54.314;10.022;2023-02-28T14:49:37;2.87;;;2.50;;
20454;SDS011;10386;54.314;10.022;2023-02-28T14:52:23;2.40;;;2.20;;
20454;SDS011;10386;54.314;10.022;2023-02-28T14:55:00;4.53;;;2.60;;
20454;SDS011;10386;54.314;10.022;2023-02-28T14:57:42;4.73;;;2.90;;
20454;SDS011;10386;54.314;10.022;2023-02-28T15:02:53;6.13;;;2.37;;
20454;SDS011;10386;54.314;10.022;2023-02-28T15:05:24;3.07;;;2.27;;
20454;SDS011;10386;54.314;10.022;2023-02-28T15:10:53;2.63;;;2.43;;
20454;SDS011;10386;54.314;10.022;2023-02-28T15:13:26;2.37;;;2.20;;
20454;SDS011;10386;54.314;10.022;2023-02-28T15:16:12;5.70;;;2.37;;
20454;SDS011;10386;54.314;10.022;2023-02-28T15:21:41;2.87;;;2.37;;
20454;SDS011;10386;54.314;10.022;2023-02-28T15:24:21;2.47;;;2.27;;
20454;SDS011;10386;54.314;10.022;2023-02-28T15:26:56;2.73;;;2.33;;
20454;SDS011;10386;54.314;10.022;2023-02-28T15:29:29;3.47;;;2.10;;
20454;SDS011;10386;54.314;10.022;2023-02-28T15:32:03;4.60;;;2.50;;
20454;SDS011;10386;54.314;10.022;2023-02-28T15:34:38;3.50;;;3.00;;
20454;SDS011;10386;54.314;10.022;2023-02-28T15:37:26;3.80;;;2.13;;
20454;SDS011;10386;54.314;10.022;2023-02-28T15:40:12;5.80;;;2.30;;
20454;SDS011;10386;54.314;10.022;2023-02-28T15:43:29;3.10;;;2.20;;
20454;SDS011;10386;54.314;10.022;2023-02-28T15:53:40;5.17;;;3.33;;
20454;SDS011;10386;54.314;10.022;2023-02-28T15:56:24;4.00;;;2.90;;
20454;SDS011;10386;54.314;10.022;2023-02-28T15:58:54;4.97;;;2.80;;
20454;SDS011;10386;54.314;10.022;2023-02-28T16:04:04;5.20;;;2.83;;
20454;SDS011;10386;54.314;10.022;2023-02-28T16:09:18;6.63;;;2.80;;
20454;SDS011;10386;54.314;10.022;2023-02-28T16:11:49;3.93;;;2.80;;
20454;SDS011;10386;54.314;10.022;2023-02-28T16:14:20;6.27;;;2.90;;
20454;SDS011;10386;54.314;10.022;2023-02-28T16:16:54;5.77;;;2.93;;
20454;SDS011;10386;54.314;10.022;2023-02-28T16:19:22;4.73;;;2.70;;
20454;SDS011;10386;54.314;10.022;2023-02-28T16:21:50;4.03;;;2.60;;
20454;SDS011;10386;54.314;10.022;2023-02-28T16:24:17;3.27;;;2.30;;
20454;SDS011;10386;54.314;10.022;2023-02-28T16:26:47;2.50;;;2.30;;
20454;SDS011;10386;54.314;10.022;2023-02-28T16:29:23;2.77;;;2.30;;
20454;SDS011;10386;54.314;10.022;2023-02-28T16:31:58;4.13;;;3.00;;
20454;SDS011;10386;54.314;10.022;2023-02-28T16:34:27;2.83;;;2.47;;
20454;SDS011;10386;54.314;10.022;2023-02-28T16:36:53;2.90;;;2.27;;
20454;SDS011;10386;54.314;10.022;2023-02-28T16:39:20;2.67;;;2.40;;
20454;SDS011;10386;54.314;10.022;2023-02-28T16:41:49;2.80;;;2.40;;
20454;SDS011;10386;54.314;10.022;2023-02-28T16:44:33;2.43;;;2.23;;
20454;SDS011;10386;54.314;10.022;2023-02-28T16:47:02;4.13;;;2.40;;
20454;SDS011;10386;54.314;10.022;2023-02-28T16:49:30;3.97;;;2.20;;
20454;SDS011;10386;54.314;10.022;2023-02-28T16:51:57;2.20;;;2.00;;
20454;SDS011;10386;54.314;10.022;2023-02-28T16:54:24;3.40;;;2.20;;
20454;SDS011;10386;54.314;10.022;2023-02-28T16:56:55;2.23;;;2.00;;
20454;SDS011;10386;54.314;10.022;2023-02-28T16:59:23;2.63;;;2.20;;
20454;SDS011;10386;54.314;10.022;2023-02-28T17:01:51;2.47;;;2.17;;
20454;SDS011;10386;54.314;10.022;2023-02-28T17:04:18;4.63;;;2.07;;
20454;SDS011;10386;54.314;10.022;2023-02-28T17:06:45;3.90;;;2.20;;
20454;SDS011;10386;54.314;10.022;2023-02-28T17:09:20;2.73;;;2.00;;
20454;SDS011;10386;54.314;10.022;2023-02-28T17:11:56;5.17;;;3.10;;
20454;SDS011;10386;54.314;10.022;2023-02-28T17:14:23;2.17;;;2.00;;
20454;SDS011;10386;54.314;10.022;2023-02-28T17:16:49;2.87;;;1.97;;
20454;SDS011;10386;54.314;10.022;2023-02-28T17:19:16;2.27;;;2.07;;
20454;SDS011;10386;54.314;10.022;2023-02-28T17:21:44;5.60;;;2.30;;
20454;SDS011;10386;54.314;10.022;2023-02-28T17:24:11;2.47;;;2.00;;
20454;SDS011;10386;54.314;10.022;2023-02-28T17:26:44;5.70;;;2.03;;
20454;SDS011;10386;54.314;10.022;2023-02-28T17:29:15;9.43;;;2.30;;
20454;SDS011;10386;54.314;10.022;2023-02-28T17:31:44;11.80;;;2.60;;
20454;SDS011;10386;54.314;10.022;2023-02-28T17:34:11;3.33;;;2.60;;
20454;SDS011;10386;54.314;10.022;2023-02-28T17:36:37;4.33;;;2.33;;
20454;SDS011;10386;54.314;10.022;2023-02-28T17:39:05;6.93;;;2.57;;
20454;SDS011;10386;54.314;10.022;2023-02-28T17:41:37;4.00;;;2.50;;
20454;SDS011;10386;54.314;10.022;2023-02-28T17:44:04;3.47;;;2.27;;
20454;SDS011;10386;54.314;10.022;2023-02-28T17:46:30;6.80;;;2.40;;
20454;SDS011;10386;54.314;10.022;2023-02-28T17:48:58;2.70;;;2.23;;
20454;SDS011;10386;54.314;10.022;2023-02-28T17:51:26;3.07;;;2.37;;
20454;SDS011;10386;54.314;10.022;2023-02-28T17:53:53;3.67;;;2.40;;
20454;SDS011;10386;54.314;10.022;2023-02-28T17:56:23;3.67;;;2.30;;
20454;SDS011;10386;54.314;10.022;2023-02-28T17:58:53;6.33;;;2.57;;